Time;durP1;ratioP1;P1;durP2;ratioP2;P2;SDS_P1;SDS_P2;PMS_P1;PMS_P2;Temp;Humidity;BMP_temperature;BMP_pressure;BME280_temperature;BME280_humidity;BME280_pressure;Samples;Min_cycle;Max_cycle;Signal;HPM_P1;HPM_P2
2023/08/10 00:02:00;;;;;;;2.60;0.30;;;;;;;20.96;60.30;100134.63;5282607;27;32518;-88
2023/08/10 00:04:28;;;;;;;0.93;0.20;;;;;;;20.83;60.22;100128.53;5282732;27;32894;-90
2023/08/10 00:06:56;;;;;;;0.40;0.28;;;;;;;20.76;60.52;100130.88;5265292;27;32744;-89
2023/08/10 00:09:24;;;;;;;1.17;0.70;;;;;;;20.78;60.15;100133.44;5283368;27;32508;-88
2023/08/10 00:11:52;;;;;;;0.20;0.20;;;;;;;20.75;60.09;100130.97;5266076;27;33054;-89
2023/08/10 00:14:19;;;;;;;0.20;0.20;;;;;;;20.63;60.40;100128.31;5284167;27;33474;-89
2023/08/10 00:16:47;;;;;;;0.47;0.47;;;;;;;20.52;60.80;100130.19;5266285;27;32404;-89
2023/08/10 00:19:15;;;;;;;0.52;0.52;;;;;;;20.46;60.89;100135.03;5284766;27;33572;-89
2023/08/10 00:21:42;;;;;;;0.20;0.20;;;;;;;20.58;60.27;100141.25;5283795;27;32603;-88
2023/08/10 00:24:10;;;;;;;0.60;0.37;;;;;;;20.51;60.59;100133.81;5284586;27;34628;-88
2023/08/10 00:26:38;;;;;;;0.52;0.52;;;;;;;20.35;61.00;100131.47;5284587;27;32682;-88
2023/08/10 00:29:05;;;;;;;0.30;0.30;;;;;;;20.15;61.67;100135.72;5266711;27;32384;-88
2023/08/10 00:31:33;;;;;;;0.43;0.40;;;;;;;20.19;61.53;100134.50;5284187;27;32921;-88
2023/08/10 00:34:01;;;;;;;0.08;0.08;;;;;;;20.16;61.66;100132.06;5283942;27;34082;-88
2023/08/10 00:36:29;;;;;;;1.95;0.62;;;;;;;20.16;61.34;100129.38;5284358;27;32766;-88
2023/08/10 00:38:56;;;;;;;0.40;0.40;;;;;;;20.12;61.56;100134.12;5283493;27;32527;-88
2023/08/10 00:41:24;;;;;;;0.10;0.10;;;;;;;20.12;61.70;100133.28;5265556;27;32762;-88
2023/08/10 00:43:52;;;;;;;0.13;0.13;;;;;;;20.26;60.93;100129.50;5265758;27;33459;-88
2023/08/10 00:46:20;;;;;;;0.10;0.10;;;;;;;20.10;61.39;100130.72;5266537;27;32487;-92
2023/08/10 00:48:50;;;;;;;0.17;0.17;;;;;;;20.15;61.07;100136.56;5286066;27;32388;-93
2023/08/10 00:51:30;;;;;;;0.10;0.10;;;;;;;20.11;61.04;100132.41;5282276;27;33624;-91
2023/08/10 00:53:59;;;;;;;1.17;0.75;;;;;;;19.98;61.45;100118.25;5281503;27;32874;-91
2023/08/10 00:56:27;;;;;;;2.33;0.65;;;;;;;19.97;61.51;100116.56;5281199;27;32431;-91
2023/08/10 00:58:56;;;;;;;0.20;0.20;;;;;;;20.01;61.09;100120.72;5299196;27;32803;-92
2023/08/10 01:01:25;;;;;;;0.10;0.10;;;;;;;19.89;61.40;100119.84;5298922;27;34079;-90
2023/08/10 01:03:52;;;;;;;0.85;0.70;;;;;;;19.81;61.65;100121.41;5280890;27;34318;-91
2023/08/10 01:06:47;;;;;;;0.43;0.43;;;;;;;19.75;61.94;100129.91;5281005;27;32887;-92
2023/08/10 01:09:57;;;;;;;0.55;0.55;;;;;;;19.69;61.85;100126.72;5261927;27;32692;-90
2023/08/10 01:12:41;;;;;;;0.10;0.10;;;;;;;19.79;61.57;100132.22;5262038;27;33991;-89
2023/08/10 01:15:32;;;;;;;0.10;0.10;;;;;;;19.76;61.49;100127.12;5297325;27;35530;-89
2023/08/10 01:18:03;;;;;;;1.17;0.55;;;;;;;19.72;61.06;100130.16;5278496;27;33273;-89
2023/08/10 01:20:31;;;;;;;0.15;0.13;;;;;;;19.65;61.27;100129.75;5297651;27;33088;-89
2023/08/10 01:23:01;;;;;;;1.08;0.45;;;;;;;19.51;61.74;100133.44;5296712;27;33801;-89
2023/08/10 01:25:30;;;;;;;0.10;0.10;;;;;;;19.58;61.52;100131.16;5296868;27;33926;-90
2023/08/10 01:27:59;;;;;;;0.40;0.40;;;;;;;19.55;61.48;100128.72;5296772;27;33930;-89
2023/08/10 01:30:27;;;;;;;0.05;0.05;;;;;;;19.51;61.54;100124.56;5297441;27;32728;-90
2023/08/10 01:32:55;;;;;;;0.37;0.37;;;;;;;19.45;61.84;100128.56;5297536;27;33781;-89
2023/08/10 01:35:24;;;;;;;0.20;0.20;;;;;;;19.44;61.75;100132.22;5279232;27;33014;-90
2023/08/10 01:37:52;;;;;;;0.10;0.10;;;;;;;19.42;61.81;100128.81;5279935;27;32848;-89
2023/08/10 01:40:20;;;;;;;0.10;0.10;;;;;;;19.40;61.61;100126.22;5299939;27;33920;-89
2023/08/10 01:42:48;;;;;;;0.25;0.25;;;;;;;19.28;61.95;100134.34;5299462;27;32817;-89
2023/08/10 01:45:16;;;;;;;0.50;0.50;;;;;;;19.08;62.89;100133.13;5299411;27;34756;-89
2023/08/10 01:48:25;;;;;;;0.20;0.20;;;;;;;19.09;62.63;100140.19;5299522;27;33130;-89
2023/08/10 01:50:53;;;;;;;0.10;0.10;;;;;;;19.08;62.65;100142.00;5299507;27;32517;-89
2023/08/10 01:53:26;;;;;;;0.20;0.10;;;;;;;19.16;62.64;100139.63;5245975;27;32672;-89
2023/08/10 01:55:54;;;;;;;0.25;0.25;;;;;;;19.06;62.95;100135.06;5299525;27;33535;-89
2023/08/10 01:58:22;;;;;;;0.17;0.13;;;;;;;18.94;63.46;100139.47;5281187;27;34504;-88
2023/08/10 02:00:51;;;;;;;0.65;0.65;;;;;;;18.79;63.76;100125.41;5280559;27;32162;-89
2023/08/10 02:03:19;;;;;;;1.87;0.68;;;;;;;18.95;63.59;100130.50;5299265;27;33633;-87
2023/08/10 02:05:47;;;;;;;0.05;0.05;;;;;;;18.78;63.93;100129.03;5298800;27;33118;-89
2023/08/10 02:08:15;;;;;;;0.30;0.30;;;;;;;18.91;63.54;100135.22;5298618;27;33615;-88
2023/08/10 02:10:49;;;;;;;0.15;0.15;;;;;;;18.91;63.29;100129.00;5280775;27;32780;-89
2023/08/10 02:13:17;;;;;;;0.98;0.50;;;;;;;18.96;62.99;100132.22;5297405;27;33145;-88
2023/08/10 02:15:45;;;;;;;0.05;0.05;;;;;;;18.92;63.02;100130.72;5297363;27;33575;-88
2023/08/10 02:18:13;;;;;;;0.50;0.40;;;;;;;18.90;63.04;100130.84;5297252;27;34192;-88
2023/08/10 02:20:40;;;;;;;0.55;0.20;;;;;;;18.69;64.30;100132.37;5279357;27;33695;-89
2023/08/10 02:23:08;;;;;;;0.37;0.32;;;;;;;18.86;63.82;100126.69;5298045;27;33811;-89
2023/08/10 02:25:36;;;;;;;0.30;0.22;;;;;;;18.70;65.13;100133.22;5297377;27;34264;-89
2023/08/10 02:28:04;;;;;;;0.62;0.37;;;;;;;18.78;64.77;100122.84;5297475;27;33153;-89
2023/08/10 02:30:32;;;;;;;0.30;0.30;;;;;;;18.76;64.91;100124.78;5297639;27;32945;-89
2023/08/10 02:33:01;;;;;;;0.37;0.30;;;;;;;18.97;64.17;100123.22;5261382;27;33057;-89
2023/08/10 02:35:28;;;;;;;0.10;0.10;;;;;;;18.92;64.36;100125.37;5297531;27;34913;-88
2023/08/10 02:37:56;;;;;;;0.77;0.77;;;;;;;18.76;65.20;100122.13;5279124;27;32844;-88
2023/08/10 02:40:25;;;;;;;2.20;0.22;;;;;;;18.80;64.75;100120.91;5297611;27;33802;-88
2023/08/10 02:42:53;;;;;;;0.03;0.03;;;;;;;18.84;64.90;100123.25;5297352;27;33603;-88
2023/08/10 02:45:20;;;;;;;0.40;0.35;;;;;;;19.09;63.97;100119.63;5297999;27;33380;-90
2023/08/10 02:47:48;;;;;;;0.30;0.30;;;;;;;19.09;63.81;100124.16;5281078;27;33996;-89
2023/08/10 02:50:16;;;;;;;0.73;0.40;;;;;;;18.99;63.92;100123.97;5281027;27;32627;-90
2023/08/10 02:52:44;;;;;;;2.12;0.40;;;;;;;18.89;64.41;100126.44;5280538;27;33128;-89
2023/08/10 02:55:12;;;;;;;0.55;0.52;;;;;;;18.94;64.10;100128.78;5297245;27;34697;-88
2023/08/10 02:57:41;;;;;;;0.10;0.10;;;;;;;18.93;64.21;100129.75;5297776;27;34054;-88
2023/08/10 03:00:12;;;;;;;2.60;0.55;;;;;;;18.92;64.04;100126.22;5296759;27;32920;-89
2023/08/10 03:02:40;;;;;;;1.47;1.37;;;;;;;18.99;63.56;100129.31;5261846;27;32764;-90
2023/08/10 03:05:08;;;;;;;0.50;0.50;;;;;;;18.88;64.03;100127.41;5281095;27;33866;-90
2023/08/10 03:07:36;;;;;;;0.30;0.30;;;;;;;18.74;64.43;100126.69;5280989;27;32785;-90
2023/08/10 03:10:05;;;;;;;1.35;0.43;;;;;;;18.88;63.72;100121.19;5281107;27;33372;-90
2023/08/10 03:12:37;;;;;;;0.77;0.77;;;;;;;18.79;63.92;100125.41;5280734;27;33283;-89
2023/08/10 03:15:09;;;;;;;0.30;0.30;;;;;;;18.73;64.03;100123.19;5298123;27;33062;-90
2023/08/10 03:17:38;;;;;;;0.20;0.20;;;;;;;18.68;64.16;100122.63;5281085;27;32651;-90
2023/08/10 03:20:12;;;;;;;0.40;0.40;;;;;;;18.76;63.79;100124.78;5298554;27;32604;-90
2023/08/10 03:22:40;;;;;;;0.20;0.20;;;;;;;18.71;64.06;100132.28;5280890;27;33139;-90
2023/08/10 03:25:09;;;;;;;0.70;0.35;;;;;;;18.49;64.87;100128.44;5299172;27;32509;-90
2023/08/10 03:27:37;;;;;;;0.25;0.25;;;;;;;18.55;64.42;100133.34;5298355;27;34000;-89
2023/08/10 03:30:07;;;;;;;0.32;0.15;;;;;;;18.49;64.67;100133.78;5278810;27;32690;-89
2023/08/10 03:32:37;;;;;;;0.10;0.10;;;;;;;18.62;64.31;100134.63;5262083;27;33946;-89
2023/08/10 03:35:05;;;;;;;0.22;0.13;;;;;;;18.53;64.50;100139.78;5299427;27;34672;-88
2023/08/10 03:37:33;;;;;;;0.37;0.35;;;;;;;18.47;64.51;100138.41;5280414;27;32777;-90
2023/08/10 03:40:02;;;;;;;0.03;0.03;;;;;;;18.52;64.25;100144.28;5299347;27;32808;-90
2023/08/10 03:42:30;;;;;;;0.30;0.30;;;;;;;18.59;64.07;100145.53;5280578;27;32761;-90
2023/08/10 03:44:58;;;;;;;0.55;0.45;;;;;;;18.61;63.81;100154.31;5299273;27;34045;-90
2023/08/10 03:47:26;;;;;;;0.20;0.20;;;;;;;18.43;64.70;100166.31;5297231;27;33011;-90
2023/08/10 03:49:54;;;;;;;0.05;0.05;;;;;;;18.51;64.29;100163.94;5279295;27;32815;-90
2023/08/10 03:52:23;;;;;;;1.83;0.45;;;;;;;18.54;64.16;100174.41;5297807;27;34009;-90
2023/08/10 03:54:51;;;;;;;0.05;0.05;;;;;;;18.52;64.21;100163.00;5297569;27;33006;-90
2023/08/10 03:57:19;;;;;;;1.58;0.50;;;;;;;18.45;64.48;100174.22;5297139;27;33005;-89
2023/08/10 03:59:46;;;;;;;0.47;0.47;;;;;;;18.56;63.57;100174.31;5279204;27;32665;-89
2023/08/10 04:02:15;;;;;;;0.43;0.43;;;;;;;18.40;64.62;100177.22;5279313;27;33342;-89
2023/08/10 04:04:43;;;;;;;0.13;0.13;;;;;;;18.34;64.54;100181.19;5299155;27;34020;-88
2023/08/10 04:07:12;;;;;;;0.57;0.47;;;;;;;18.37;64.43;100172.94;5280588;27;32499;-89
2023/08/10 04:09:44;;;;;;;0.10;0.10;;;;;;;18.51;64.35;100173.78;5299075;27;32740;-87
2023/08/10 04:12:12;;;;;;;0.10;0.10;;;;;;;18.63;63.79;100176.44;5279965;27;33246;-88
2023/08/10 04:14:40;;;;;;;0.70;0.70;;;;;;;18.62;64.23;100182.75;5280673;27;34183;-88
2023/08/10 04:17:08;;;;;;;0.30;0.30;;;;;;;18.65;64.49;100187.88;5298754;27;32745;-89
2023/08/10 04:19:36;;;;;;;1.67;0.68;;;;;;;18.72;64.19;100187.50;5280665;27;32638;-89
2023/08/10 04:22:03;;;;;;;0.10;0.10;;;;;;;18.78;63.99;100187.03;5280527;27;33576;-89
2023/08/10 04:24:31;;;;;;;0.73;0.43;;;;;;;18.85;63.74;100188.34;5298834;27;34770;-89
2023/08/10 04:27:00;;;;;;;0.10;0.10;;;;;;;18.95;63.76;100184.03;5297851;27;34470;-88
2023/08/10 04:29:28;;;;;;;1.30;1.02;;;;;;;19.02;64.04;100185.28;5298741;27;32188;-90
2023/08/10 04:31:57;;;;;;;0.30;0.30;;;;;;;19.17;63.65;100181.47;5298720;27;32969;-89
2023/08/10 04:34:25;;;;;;;0.43;0.35;;;;;;;19.37;62.93;100179.13;5279784;27;32638;-90
2023/08/10 04:36:52;;;;;;;0.22;0.22;;;;;;;19.36;62.92;100188.16;5279741;27;32663;-90
2023/08/10 04:39:20;;;;;;;0.50;0.35;;;;;;;19.29;63.52;100187.75;5298237;27;32199;-91
2023/08/10 04:41:48;;;;;;;0.10;0.10;;;;;;;19.40;63.18;100181.59;5298644;27;33453;-91
2023/08/10 04:44:16;;;;;;;0.47;0.40;;;;;;;19.48;63.40;100183.72;5281069;27;32996;-88
2023/08/10 04:46:44;;;;;;;0.30;0.30;;;;;;;19.54;63.16;100181.44;5299485;27;34117;-89
2023/08/10 04:49:12;;;;;;;0.10;0.10;;;;;;;19.73;62.29;100174.72;5280643;27;33085;-88
2023/08/10 04:51:39;;;;;;;0.77;0.40;;;;;;;19.77;62.06;100186.91;5280460;27;32519;-89
2023/08/10 04:54:08;;;;;;;0.30;0.30;;;;;;;19.79;62.22;100184.97;5280765;27;33234;-88
2023/08/10 04:56:36;;;;;;;1.35;0.93;;;;;;;19.77;62.23;100181.56;5298337;27;32885;-89
2023/08/10 04:59:04;;;;;;;0.00;0.00;;;;;;;19.82;61.79;100185.59;5299014;27;34113;-89
2023/08/10 05:01:32;;;;;;;0.40;0.20;;;;;;;19.72;62.33;100189.09;5299092;27;33129;-90
2023/08/10 05:04:00;;;;;;;0.20;0.20;;;;;;;19.90;61.63;100187.69;5262417;27;33235;-91
2023/08/10 05:06:27;;;;;;;0.35;0.35;;;;;;;19.87;62.04;100193.28;5280356;27;33000;-91
2023/08/10 05:08:56;;;;;;;0.10;0.10;;;;;;;20.24;61.04;100201.19;5298379;27;32390;-90
2023/08/10 05:11:24;;;;;;;0.20;0.20;;;;;;;20.22;60.94;100193.25;5280325;27;32914;-90
2023/08/10 05:13:52;;;;;;;0.10;0.10;;;;;;;20.12;61.28;100193.09;5280496;27;33560;-90
2023/08/10 05:16:19;;;;;;;0.25;0.15;;;;;;;20.38;60.12;100198.28;5298095;27;33807;-89
2023/08/10 05:18:48;;;;;;;0.40;0.22;;;;;;;20.32;60.66;100193.37;5280088;27;32340;-88
2023/08/10 05:21:15;;;;;;;0.20;0.20;;;;;;;20.32;60.65;100193.37;5298397;27;32596;-89
2023/08/10 05:23:43;;;;;;;3.80;1.08;;;;;;;20.40;60.86;100196.31;5298864;27;34686;-89
2023/08/10 05:26:11;;;;;;;0.10;0.10;;;;;;;20.30;60.91;100195.34;5298782;27;34611;-90
2023/08/10 05:28:39;;;;;;;1.37;0.70;;;;;;;20.61;60.59;100199.19;5280220;27;32327;-89
2023/08/10 05:31:07;;;;;;;0.17;0.17;;;;;;;21.00;59.50;100197.84;5298532;27;33833;-89
2023/08/10 05:33:35;;;;;;;0.45;0.45;;;;;;;20.73;60.08;100208.94;5298115;27;33891;-89
2023/08/10 05:36:02;;;;;;;0.10;0.10;;;;;;;21.09;59.01;100215.88;5280374;27;33100;-89
2023/08/10 05:38:30;;;;;;;0.30;0.30;;;;;;;21.15;58.70;100209.16;5298624;27;33965;-89
2023/08/10 05:40:58;;;;;;;0.93;0.77;;;;;;;21.19;58.51;100216.84;5298193;27;32862;-89
2023/08/10 05:43:26;;;;;;;0.47;0.43;;;;;;;21.02;59.37;100214.66;5279657;27;33361;-88
2023/08/10 05:45:54;;;;;;;1.35;0.47;;;;;;;21.19;58.37;100213.31;5280057;27;33617;-88
2023/08/10 05:48:22;;;;;;;0.28;0.25;;;;;;;21.01;58.63;100226.38;5298239;27;33546;-88
2023/08/10 05:50:50;;;;;;;0.25;0.25;;;;;;;21.05;59.50;100217.09;5298090;27;32687;-88
2023/08/10 05:53:18;;;;;;;0.40;0.40;;;;;;;20.82;60.20;100229.69;5298460;27;34125;-88
2023/08/10 05:55:53;;;;;;;0.80;0.13;;;;;;;21.10;59.10;100222.09;5297732;27;33300;-88
2023/08/10 05:58:26;;;;;;;0.28;0.28;;;;;;;21.36;58.49;100223.53;5278966;27;32682;-88
2023/08/10 06:00:54;;;;;;;0.25;0.25;;;;;;;21.05;59.71;100224.31;5278593;27;33250;-88
2023/08/10 06:03:22;;;;;;;0.70;0.70;;;;;;;21.18;59.05;100223.19;5296452;27;34649;-88
2023/08/10 06:05:49;;;;;;;0.22;0.22;;;;;;;21.20;59.27;100226.59;5279139;27;33572;-88
2023/08/10 06:08:17;;;;;;;0.00;0.00;;;;;;;21.15;59.12;100226.13;5279487;27;32441;-89
2023/08/10 06:10:50;;;;;;;0.20;0.20;;;;;;;21.17;58.47;100229.56;5297244;27;33057;-90
2023/08/10 06:13:18;;;;;;;0.00;0.00;;;;;;;21.35;58.45;100229.91;5279870;27;34507;-90
2023/08/10 06:15:46;;;;;;;0.45;0.32;;;;;;;21.15;58.32;100236.84;5297828;27;34063;-89
2023/08/10 06:18:14;;;;;;;1.02;0.80;;;;;;;21.18;59.28;100225.03;5298267;27;33402;-89
2023/08/10 06:20:42;;;;;;;0.20;0.20;;;;;;;21.29;58.13;100221.47;5280621;27;33401;-89
2023/08/10 06:23:09;;;;;;;0.77;0.77;;;;;;;21.72;58.33;100219.66;5299058;27;33370;-89
2023/08/10 06:25:37;;;;;;;0.20;0.20;;;;;;;22.02;56.51;100223.41;5299199;27;32487;-89
2023/08/10 06:28:06;;;;;;;0.55;0.10;;;;;;;21.82;56.06;100225.09;5299398;27;33579;-88
2023/08/10 06:30:35;;;;;;;0.68;0.50;;;;;;;22.34;55.87;100230.63;5280546;27;33961;-90
2023/08/10 06:33:02;;;;;;;0.40;0.20;;;;;;;22.31;56.03;100220.97;5276524;27;34470;-88
2023/08/10 06:35:35;;;;;;;1.77;0.80;;;;;;;22.56;55.09;100226.94;5278640;27;32859;-87
2023/08/10 06:38:06;;;;;;;0.25;0.20;;;;;;;22.45;54.46;100227.84;5297349;27;33470;-88
2023/08/10 06:40:34;;;;;;;0.47;0.32;;;;;;;21.97;55.38;100229.19;5297388;27;33149;-90
2023/08/10 06:43:01;;;;;;;0.40;0.40;;;;;;;21.90;55.87;100235.22;5297588;27;35224;-86
2023/08/10 06:45:30;;;;;;;0.40;0.40;;;;;;;22.13;56.04;100227.94;5279164;27;32577;-87
2023/08/10 06:47:57;;;;;;;0.25;0.25;;;;;;;22.43;55.17;100244.13;5296854;27;33023;-87
2023/08/10 06:50:25;;;;;;;0.35;0.20;;;;;;;22.76;54.75;100242.19;5295877;27;34051;-87
2023/08/10 06:52:53;;;;;;;0.30;0.30;;;;;;;22.99;53.42;100245.59;5278806;27;33562;-88
2023/08/10 06:55:21;;;;;;;1.17;0.47;;;;;;;22.48;54.00;100254.50;5297969;27;33475;-87
2023/08/10 06:57:48;;;;;;;0.40;0.20;;;;;;;22.92;53.35;100247.09;5296488;27;31653;-88
2023/08/10 07:00:20;;;;;;;4.32;0.70;;;;;;;22.99;53.32;100251.81;5295689;27;32791;-86
2023/08/10 07:02:53;;;;;;;0.55;0.47;;;;;;;22.74;53.45;100258.50;5279953;27;33988;-86
2023/08/10 07:05:26;;;;;;;5.03;0.40;;;;;;;23.15;53.05;100248.62;5277819;27;32736;-86
2023/08/10 07:07:55;;;;;;;5.07;0.47;;;;;;;23.20;52.62;100248.19;5297729;27;33283;-85
2023/08/10 07:10:23;;;;;;;0.90;0.85;;;;;;;23.16;52.22;100250.31;5297421;27;32638;-86
2023/08/10 07:12:54;;;;;;;0.65;0.40;;;;;;;22.81;52.63;100249.88;5297822;27;33093;-88
2023/08/10 07:15:32;;;;;;;0.43;0.43;;;;;;;22.57;53.20;100256.41;5295960;27;33278;-87
2023/08/10 07:18:00;;;;;;;0.35;0.35;;;;;;;22.83;53.35;100253.25;5297328;27;33629;-87
2023/08/10 07:21:13;;;;;;;0.20;0.20;;;;;;;22.56;54.02;100257.41;5296018;27;32766;-87
2023/08/10 07:23:46;;;;;;;0.55;0.30;;;;;;;22.64;53.59;100259.41;5296994;27;33513;-87
2023/08/10 07:26:16;;;;;;;0.17;0.17;;;;;;;23.01;52.96;100259.75;5295003;27;33818;-87
2023/08/10 07:28:45;;;;;;;0.10;0.10;;;;;;;23.02;52.08;100264.16;5297393;27;33779;-87
2023/08/10 07:31:12;;;;;;;0.10;0.10;;;;;;;23.22;50.54;100265.09;5278449;27;33454;-86
2023/08/10 07:33:42;;;;;;;4.57;0.73;;;;;;;23.14;50.94;100265.78;5297242;27;33716;-87
2023/08/10 07:36:10;;;;;;;0.03;0.00;;;;;;;23.16;50.34;100271.88;5297178;27;33926;-87
2023/08/10 07:38:38;;;;;;;0.22;0.15;;;;;;;22.96;51.54;100265.56;5278021;27;33819;-87
2023/08/10 07:41:08;;;;;;;0.40;0.40;;;;;;;23.05;49.85;100263.87;5296989;27;34910;-87
2023/08/10 07:43:36;;;;;;;0.40;0.20;;;;;;;22.69;50.64;100262.53;5278738;27;33158;-87
2023/08/10 07:46:10;;;;;;;0.13;0.13;;;;;;;23.44;49.73;100258.63;5296980;27;33312;-87
2023/08/10 07:48:38;;;;;;;0.17;0.15;;;;;;;23.15;50.47;100256.69;5297101;27;33414;-87
2023/08/10 07:51:06;;;;;;;0.52;0.52;;;;;;;23.48;48.19;100262.75;5278271;27;33601;-87
2023/08/10 07:53:34;;;;;;;0.20;0.20;;;;;;;23.67;48.62;100257.41;5297500;27;33988;-87
2023/08/10 07:56:02;;;;;;;0.45;0.30;;;;;;;23.66;48.83;100258.41;5296769;27;32379;-87
2023/08/10 07:58:38;;;;;;;0.50;0.50;;;;;;;23.73;47.63;100254.16;5297625;27;32901;-89
2023/08/10 08:04:35;;;;;;;0.03;0.03;;;;;;;23.34;47.25;100257.75;5296893;27;33802;-85
2023/08/10 08:07:05;;;;;;;0.60;0.57;;;;;;;23.34;46.64;100263.97;5295931;27;33313;-87
2023/08/10 08:09:34;;;;;;;0.45;0.40;;;;;;;23.33;47.00;100264.13;5296712;27;32686;-87
2023/08/10 08:12:02;;;;;;;0.47;0.47;;;;;;;23.34;48.15;100268.53;5296376;27;33744;-87
2023/08/10 08:14:35;;;;;;;1.27;0.55;;;;;;;23.63;46.99;100266.75;5296129;27;33505;-86
2023/08/10 08:18:26;;;;;;;0.30;0.30;;;;;;;23.94;45.93;100272.91;5267752;27;33707;-86
2023/08/10 08:20:56;;;;;;;0.10;0.10;;;;;;;24.28;45.35;100259.84;5277903;27;34039;-87
2023/08/10 08:23:23;;;;;;;0.52;0.50;;;;;;;24.83;42.21;100269.12;5296027;27;33690;-86
2023/08/10 08:25:54;;;;;;;0.30;0.30;;;;;;;24.10;46.23;100266.94;5296939;27;34133;-86
2023/08/10 08:28:23;;;;;;;0.00;0.00;;;;;;;24.07;44.57;100269.94;5242683;27;32838;-87
2023/08/10 08:30:53;;;;;;;0.28;0.28;;;;;;;24.82;43.85;100268.25;5295448;27;34217;-86
2023/08/10 08:33:34;;;;;;;0.10;0.10;;;;;;;24.75;43.58;100281.53;5296638;27;34028;-87
2023/08/10 08:36:05;;;;;;;0.20;0.20;;;;;;;24.82;42.77;100272.81;5297146;27;33851;-87
2023/08/10 08:38:33;;;;;;;0.05;0.05;;;;;;;25.13;42.59;100279.72;5279157;27;33054;-86
2023/08/10 08:41:09;;;;;;;0.20;0.20;;;;;;;25.22;42.12;100276.12;5278280;27;32609;-87
2023/08/10 08:43:39;;;;;;;0.25;0.25;;;;;;;25.19;41.28;100281.81;5296843;27;34297;-87
2023/08/10 08:46:08;;;;;;;0.55;0.55;;;;;;;25.57;40.61;100279.03;5297083;27;34160;-87
2023/08/10 08:48:36;;;;;;;0.10;0.10;;;;;;;25.66;41.68;100284.41;5296766;27;34600;-87
2023/08/10 08:51:05;;;;;;;0.03;0.03;;;;;;;25.61;40.09;100275.88;5296722;27;33415;-87
2023/08/10 08:53:33;;;;;;;0.10;0.10;;;;;;;25.47;39.30;100279.94;5297313;27;34252;-86
2023/08/10 08:56:04;;;;;;;0.37;0.10;;;;;;;25.25;37.46;100281.19;5296619;27;34454;-86
2023/08/10 08:58:35;;;;;;;0.20;0.20;;;;;;;25.70;36.04;100290.34;5278154;27;33318;-87
2023/08/10 09:01:03;;;;;;;0.10;0.10;;;;;;;25.70;36.93;100271.41;5295243;27;34732;-86
2023/08/10 09:03:31;;;;;;;1.35;0.30;;;;;;;25.49;36.53;100277.97;5278046;27;33013;-87
2023/08/10 09:06:00;;;;;;;0.20;0.20;;;;;;;25.58;36.16;100275.34;5260048;27;32317;-86
2023/08/10 09:08:28;;;;;;;0.25;0.25;;;;;;;25.65;35.92;100282.69;5296544;27;32882;-86
2023/08/10 09:11:00;;;;;;;0.05;0.05;;;;;;;26.01;34.73;100269.22;5269099;27;102302;-84
2023/08/10 09:13:28;;;;;;;0.10;0.10;;;;;;;25.81;33.46;100281.19;5277101;27;32814;-87
2023/08/10 09:16:07;;;;;;;0.00;0.00;;;;;;;25.56;32.72;100280.91;5277843;27;33104;-87
2023/08/10 09:18:37;;;;;;;0.00;0.00;;;;;;;25.66;32.53;100284.41;5295023;27;32834;-87
2023/08/10 09:21:13;;;;;;;0.20;0.10;;;;;;;26.01;32.78;100280.87;5296462;27;33151;-87
2023/08/10 09:23:44;;;;;;;0.00;0.00;;;;;;;25.70;33.71;100285.78;5296907;27;34982;-87
2023/08/10 09:26:23;;;;;;;0.00;0.00;;;;;;;26.26;32.38;100281.97;5278382;27;35735;-86
2023/08/10 09:28:53;;;;;;;0.20;0.20;;;;;;;26.18;30.92;100281.91;5298333;27;34784;-87
2023/08/10 09:31:23;;;;;;;0.10;0.10;;;;;;;26.18;33.12;100279.19;5296877;27;32868;-87
2023/08/10 09:33:57;;;;;;;0.32;0.20;;;;;;;25.66;31.55;100287.09;5297568;27;34363;-86
2023/08/10 09:36:29;;;;;;;0.00;0.00;;;;;;;25.97;30.74;100276.81;5296646;27;32823;-86
2023/08/10 09:38:58;;;;;;;1.35;0.40;;;;;;;26.35;31.06;100287.44;5260405;27;34178;-86
2023/08/10 09:41:29;;;;;;;0.40;0.30;;;;;;;26.44;28.76;100272.97;5276905;27;33796;-86
2023/08/10 09:43:57;;;;;;;0.10;0.10;;;;;;;26.37;30.16;100282.72;5276676;27;33205;-85
2023/08/10 09:46:30;;;;;;;0.35;0.22;;;;;;;26.22;33.04;100283.28;5276838;27;33085;-86
2023/08/10 09:49:01;;;;;;;0.68;0.30;;;;;;;26.02;31.68;100274.50;5277024;27;33859;-86
2023/08/10 09:51:36;;;;;;;0.00;0.00;;;;;;;26.33;32.01;100281.34;5296284;27;34919;-86
2023/08/10 09:54:05;;;;;;;0.22;0.13;;;;;;;26.43;32.04;100282.13;5278508;27;32406;-86
2023/08/10 09:56:35;;;;;;;0.00;0.00;;;;;;;25.96;32.58;100276.94;5296655;27;34299;-87
2023/08/10 09:59:04;;;;;;;1.08;0.52;;;;;;;26.02;31.97;100279.91;5278549;27;33580;-86
2023/08/10 10:01:34;;;;;;;0.00;0.00;;;;;;;25.64;33.24;100278.31;5278286;27;33197;-86
2023/08/10 10:04:04;;;;;;;0.10;0.10;;;;;;;26.24;33.46;100270.44;5296438;27;33520;-86
2023/08/10 10:06:34;;;;;;;0.60;0.60;;;;;;;26.25;31.89;100274.87;5279819;27;33323;-87
2023/08/10 10:11:54;;;;;;;0.00;0.00;;;;;;;26.49;30.35;100270.66;5295623;27;33926;-86
2023/08/10 10:14:23;;;;;;;0.08;0.08;;;;;;;26.37;31.06;100271.91;5296043;27;33643;-86
2023/08/10 10:16:51;;;;;;;1.00;0.17;;;;;;;26.79;29.25;100262.06;5278320;27;34826;-86
2023/08/10 10:19:20;;;;;;;0.10;0.10;;;;;;;26.83;27.69;100256.34;5260748;27;33117;-86
2023/08/10 10:21:51;;;;;;;0.20;0.20;;;;;;;26.74;30.16;100255.44;5296398;27;33549;-86
2023/08/10 10:24:21;;;;;;;0.25;0.25;;;;;;;26.49;30.18;100265.22;5297007;27;33518;-86
2023/08/10 10:27:10;;;;;;;0.10;0.10;;;;;;;26.43;31.08;100260.47;5296990;27;33012;-86
2023/08/10 10:29:45;;;;;;;0.00;0.00;;;;;;;26.20;31.45;100258.22;5296179;27;33007;-86
2023/08/10 10:32:20;;;;;;;0.10;0.10;;;;;;;26.46;30.54;100252.88;5278315;27;33186;-86
2023/08/10 10:34:49;;;;;;;;;;;;;;;26.78;29.98;100252.25;5297121;27;33548;-86
2023/08/10 10:37:30;;;;;;;0.40;0.40;;;;;;;27.13;29.20;100258.53;5296586;27;34145;-86
2023/08/10 10:40:42;;;;;;;0.62;0.37;;;;;;;27.21;28.17;100257.75;5296337;27;33209;-86
2023/08/10 10:43:18;;;;;;;0.08;0.08;;;;;;;26.96;28.14;100245.88;5245632;27;34029;-86
2023/08/10 10:45:54;;;;;;;0.13;0.13;;;;;;;27.06;29.67;100246.59;5278862;27;33336;-86
2023/08/10 10:48:41;;;;;;;0.00;0.00;;;;;;;27.60;29.63;100254.47;5278659;27;34300;-86
2023/08/10 10:51:17;;;;;;;0.32;0.22;;;;;;;27.45;28.38;100244.25;5296695;27;33322;-86
2023/08/10 10:53:53;;;;;;;0.80;0.57;;;;;;;27.78;26.80;100238.94;5260952;27;33363;-86
2023/08/10 10:56:25;;;;;;;0.20;0.20;;;;;;;27.48;28.95;100243.91;5278457;27;33812;-86
2023/08/10 10:58:54;;;;;;;0.20;0.20;;;;;;;27.68;29.97;100235.47;5297135;27;33782;-86
2023/08/10 11:01:22;;;;;;;0.13;0.13;;;;;;;27.88;28.80;100236.06;5278611;27;33200;-86
2023/08/10 11:03:55;;;;;;;0.20;0.10;;;;;;;27.64;28.19;100234.13;5278625;27;32966;-86
2023/08/10 11:06:26;;;;;;;0.10;0.10;;;;;;;27.47;28.84;100228.66;5296881;27;33391;-86
2023/08/10 11:08:56;;;;;;;0.28;0.28;;;;;;;26.99;30.09;100235.56;5297159;27;34351;-86
2023/08/10 11:11:24;;;;;;;0.70;0.52;;;;;;;27.22;29.87;100233.16;5278702;27;33055;-86
2023/08/10 11:13:52;;;;;;;0.10;0.10;;;;;;;27.20;29.15;100240.59;5297135;27;34602;-87
2023/08/10 11:16:21;;;;;;;0.15;0.15;;;;;;;27.04;30.58;100232.38;5298913;27;33707;-86
2023/08/10 11:18:50;;;;;;;0.50;0.45;;;;;;;27.36;30.27;100230.84;5278781;27;33269;-86
2023/08/10 11:21:20;;;;;;;0.10;0.10;;;;;;;27.34;30.78;100227.44;5296734;27;32787;-84
2023/08/10 11:23:48;;;;;;;0.00;0.00;;;;;;;27.08;31.74;100224.78;5260855;27;31911;-84
2023/08/10 11:26:16;;;;;;;0.00;0.00;;;;;;;27.13;29.52;100223.31;5296729;27;32939;-84
2023/08/10 11:28:44;;;;;;;0.40;0.40;;;;;;;27.26;30.70;100220.97;5297117;27;33667;-87
2023/08/10 11:31:14;;;;;;;0.00;0.00;;;;;;;27.15;29.75;100212.28;5278564;27;32968;-87
2023/08/10 11:33:43;;;;;;;0.00;0.00;;;;;;;27.14;30.54;100227.72;5297158;27;33189;-87
2023/08/10 11:36:11;;;;;;;0.00;0.00;;;;;;;27.10;30.77;100220.91;5296725;27;34587;-87
2023/08/10 11:38:45;;;;;;;0.10;0.10;;;;;;;27.31;32.04;100213.19;5278678;27;32923;-87
2023/08/10 11:41:12;;;;;;;0.00;0.00;;;;;;;27.84;29.92;100213.84;5278928;27;32330;-87
2023/08/10 11:43:42;;;;;;;0.10;0.10;;;;;;;28.08;28.39;100215.72;5296432;27;33964;-87
2023/08/10 11:46:10;;;;;;;1.20;0.13;;;;;;;27.75;27.42;100214.84;5296215;27;33191;-87